createdAt,value
2019-01-30T00:00:07.616Z,0.00
2019-01-30T00:01:07.626Z,0.00
2019-01-30T00:02:07.600Z,0.00
2019-01-30T00:03:07.584Z,0.00
2019-01-30T00:04:07.590Z,0.00
2019-01-30T00:05:07.565Z,0.00
2019-01-30T00:06:07.556Z,0.00
2019-01-30T00:07:07.631Z,0.00
2019-01-30T00:08:07.530Z,0.00
2019-01-30T00:09:07.521Z,0.00
2019-01-30T00:10:07.519Z,0.00
2019-01-30T00:11:07.510Z,0.00
2019-01-30T00:12:09.813Z,0.00
2019-01-30T00:13:07.477Z,0.00
2019-01-30T00:14:07.467Z,0.00
2019-01-30T00:15:07.486Z,0.00
2019-01-30T00:16:07.444Z,0.00
2019-01-30T00:17:07.430Z,0.00
2019-01-30T00:18:07.420Z,0.00
2019-01-30T00:19:07.410Z,0.00
2019-01-30T00:20:07.410Z,0.00
2019-01-30T00:21:07.422Z,0.00
2019-01-30T00:22:07.378Z,0.00
2019-01-30T00:23:07.365Z,0.00
2019-01-30T00:24:07.353Z,0.00
2019-01-30T00:25:07.342Z,0.00
2019-01-30T00:26:07.342Z,0.00
2019-01-30T00:27:07.329Z,0.00
2019-01-30T00:28:07.309Z,0.00
2019-01-30T00:29:07.298Z,0.00
2019-01-30T00:30:07.287Z,0.00
2019-01-30T00:31:07.288Z,0.00
2019-01-30T00:32:07.266Z,0.00
2019-01-30T00:33:07.271Z,0.00
2019-01-30T00:34:07.270Z,0.00
2019-01-30T00:35:07.280Z,0.00
2019-01-30T00:36:07.223Z,0.00
2019-01-30T00:37:07.222Z,0.00
2019-01-30T00:38:07.202Z,0.00
2019-01-30T00:39:07.216Z,0.00
2019-01-30T00:40:07.193Z,0.00
2019-01-30T00:41:07.167Z,0.00
2019-01-30T00:42:07.157Z,0.00
2019-01-30T00:43:07.148Z,0.00
2019-01-30T00:44:07.140Z,0.00
2019-01-30T00:45:07.130Z,0.00
2019-01-30T00:46:07.117Z,0.00
2019-01-30T00:47:15.721Z,0.00
2019-01-30T00:48:08.092Z,0.00
2019-01-30T00:49:07.084Z,0.00
2019-01-30T00:50:07.071Z,0.00
2019-01-30T00:51:07.083Z,0.00
2019-01-30T00:52:07.048Z,0.00
2019-01-30T00:53:07.045Z,0.00
2019-01-30T00:54:07.042Z,0.00
2019-01-30T00:55:07.017Z,0.00
2019-01-30T00:56:07.013Z,0.00
2019-01-30T00:57:07.025Z,0.00
2019-01-30T00:58:06.980Z,0.00
2019-01-30T00:59:06.975Z,0.00
2019-01-30T01:00:14.331Z,0.00
2019-01-30T01:01:07.949Z,0.00
2019-01-30T01:02:06.940Z,0.00
2019-01-30T01:03:06.957Z,0.00
2019-01-30T01:04:06.915Z,0.00
2019-01-30T01:05:06.915Z,0.00
2019-01-30T01:06:06.897Z,0.00
2019-01-30T01:07:06.882Z,0.00
2019-01-30T01:08:06.876Z,0.00
2019-01-30T01:09:06.872Z,0.00
2019-01-30T01:10:06.864Z,0.00
2019-01-30T01:11:06.839Z,0.00
2019-01-30T01:12:06.832Z,0.00
2019-01-30T01:13:06.817Z,0.00
2019-01-30T01:14:06.805Z,0.00
2019-01-30T01:15:06.824Z,0.00
2019-01-30T01:16:06.790Z,0.00
2019-01-30T01:17:06.772Z,0.00
2019-01-30T01:18:06.764Z,0.00
2019-01-30T01:19:06.754Z,0.00
2019-01-30T01:20:06.740Z,0.00
2019-01-30T01:21:06.815Z,0.00
2019-01-30T01:22:06.734Z,0.00
2019-01-30T01:23:06.707Z,0.00
2019-01-30T01:24:06.700Z,0.00
2019-01-30T01:25:06.686Z,0.00
2019-01-30T01:26:06.690Z,0.00
2019-01-30T01:27:06.663Z,0.00
2019-01-30T01:28:06.668Z,0.00
2019-01-30T01:29:06.660Z,0.00
2019-01-30T01:30:06.640Z,0.00
2019-01-30T01:31:06.638Z,0.00
2019-01-30T01:32:06.613Z,0.00
2019-01-30T01:33:06.617Z,0.00
2019-01-30T01:34:06.599Z,0.00
2019-01-30T01:35:06.583Z,0.00
2019-01-30T01:36:06.575Z,0.00
2019-01-30T01:37:06.558Z,0.00
2019-01-30T01:38:06.546Z,0.00
2019-01-30T01:39:06.537Z,0.00
2019-01-30T01:40:06.524Z,0.00
2019-01-30T01:41:06.544Z,0.00
2019-01-30T01:42:06.515Z,0.00
2019-01-30T01:43:06.489Z,0.00
2019-01-30T01:44:06.479Z,0.00
2019-01-30T01:45:06.472Z,0.00
2019-01-30T01:46:06.468Z,0.00
2019-01-30T01:47:06.451Z,0.00
2019-01-30T01:48:06.465Z,0.00
2019-01-30T01:49:06.422Z,0.00
2019-01-30T01:50:06.412Z,0.00
2019-01-30T01:51:06.403Z,0.00
2019-01-30T01:52:06.391Z,0.00
2019-01-30T01:53:06.385Z,0.00
2019-01-30T01:54:06.381Z,0.00
2019-01-30T01:55:06.358Z,0.00
2019-01-30T01:56:06.346Z,0.00
2019-01-30T01:57:06.335Z,0.00
2019-01-30T01:58:06.343Z,0.00
2019-01-30T01:59:06.316Z,0.00
2019-01-30T02:00:06.325Z,0.00
2019-01-30T02:01:06.324Z,0.00
2019-01-30T02:02:06.280Z,0.00
2019-01-30T02:03:06.377Z,0.00
2019-01-30T02:04:06.279Z,0.00
2019-01-30T02:05:06.247Z,0.00
2019-01-30T02:06:06.239Z,0.00
2019-01-30T02:07:06.246Z,0.00
2019-01-30T02:08:06.217Z,0.00
2019-01-30T02:09:06.235Z,0.00
2019-01-30T02:10:06.206Z,0.00
2019-01-30T02:11:06.191Z,0.00
2019-01-30T02:12:06.205Z,0.00
2019-01-30T02:13:06.186Z,0.00
2019-01-30T02:14:06.187Z,0.00
2019-01-30T02:15:06.157Z,0.00
2019-01-30T02:16:06.178Z,0.00
2019-01-30T02:17:06.120Z,0.00
2019-01-30T02:18:08.479Z,0.00
2019-01-30T02:19:06.101Z,0.00
2019-01-30T02:20:06.123Z,0.00
2019-01-30T02:21:06.093Z,0.00
2019-01-30T02:22:06.094Z,0.00
2019-01-30T02:23:06.082Z,0.00
2019-01-30T02:24:06.064Z,0.00
2019-01-30T02:25:06.033Z,0.00
2019-01-30T02:26:06.025Z,0.00
2019-01-30T02:27:06.018Z,0.00
2019-01-30T02:28:06.004Z,0.00
2019-01-30T02:29:05.991Z,0.00
2019-01-30T02:30:06.052Z,0.00
2019-01-30T02:31:05.995Z,0.00
2019-01-30T02:32:05.973Z,0.00
2019-01-30T02:33:05.964Z,0.00
2019-01-30T02:34:05.936Z,0.00
2019-01-30T02:35:05.935Z,0.00
2019-01-30T02:36:05.930Z,0.00
2019-01-30T02:37:05.916Z,0.00
2019-01-30T02:38:05.886Z,0.00
2019-01-30T02:39:05.886Z,0.00
2019-01-30T02:40:05.867Z,0.00
2019-01-30T02:41:05.887Z,0.00
2019-01-30T02:42:05.870Z,0.00
2019-01-30T02:43:05.836Z,0.00
2019-01-30T02:44:05.822Z,0.00
2019-01-30T02:45:05.811Z,0.00
2019-01-30T02:46:05.815Z,0.00
2019-01-30T02:47:05.821Z,0.00
2019-01-30T02:48:05.831Z,0.00
2019-01-30T02:49:05.807Z,0.00
2019-01-30T02:50:05.755Z,0.00
2019-01-30T02:51:05.784Z,0.00
2019-01-30T02:52:05.736Z,0.00
2019-01-30T02:53:05.722Z,0.00
2019-01-30T02:54:05.714Z,0.00
2019-01-30T02:55:05.708Z,0.00
2019-01-30T02:56:05.705Z,0.00
2019-01-30T02:57:05.685Z,0.00
2019-01-30T02:58:05.672Z,0.00
2019-01-30T02:59:05.684Z,0.00
2019-01-30T03:00:05.647Z,0.00
2019-01-30T03:01:05.638Z,0.00
2019-01-30T03:02:05.647Z,0.00
2019-01-30T03:03:05.629Z,0.00
2019-01-30T03:04:05.606Z,0.00
2019-01-30T03:05:05.594Z,0.00
2019-01-30T03:06:05.582Z,0.00
2019-01-30T03:07:05.591Z,0.00
2019-01-30T03:08:05.576Z,0.00
2019-01-30T03:09:05.574Z,0.00
2019-01-30T03:10:05.699Z,0.00
2019-01-30T03:11:05.526Z,0.00
2019-01-30T03:12:05.529Z,0.00
2019-01-30T03:13:05.504Z,0.00
2019-01-30T03:14:05.493Z,0.00
2019-01-30T03:15:05.492Z,0.00
2019-01-30T03:16:05.473Z,0.00
2019-01-30T03:17:05.478Z,0.00
2019-01-30T03:18:05.448Z,0.00
2019-01-30T03:19:05.440Z,0.00
2019-01-30T03:20:05.429Z,0.00
2019-01-30T03:21:05.421Z,0.00
2019-01-30T03:22:05.420Z,0.00
2019-01-30T03:23:05.414Z,0.00
2019-01-30T03:24:05.386Z,0.00
2019-01-30T03:25:05.388Z,0.00
2019-01-30T03:26:05.368Z,0.00
2019-01-30T03:27:05.352Z,0.00
2019-01-30T03:28:05.351Z,0.00
2019-01-30T03:29:05.347Z,0.00
2019-01-30T03:30:05.327Z,0.00
2019-01-30T03:31:16.696Z,0.00
2019-01-30T03:32:06.300Z,0.00
2019-01-30T03:33:05.306Z,0.00
2019-01-30T03:34:05.285Z,0.00
2019-01-30T03:35:05.270Z,0.00
2019-01-30T03:36:05.255Z,0.00
2019-01-30T03:37:05.251Z,0.00
2019-01-30T03:38:05.256Z,0.00
2019-01-30T03:39:05.242Z,0.00
2019-01-30T03:40:05.215Z,0.00
2019-01-30T03:41:05.212Z,0.00
2019-01-30T03:42:05.207Z,0.00
2019-01-30T03:43:05.177Z,0.00
2019-01-30T03:44:05.169Z,0.00
2019-01-30T03:45:05.171Z,0.00
2019-01-30T03:46:05.153Z,0.00
2019-01-30T03:47:05.165Z,0.00
2019-01-30T03:48:05.123Z,0.00
2019-01-30T03:49:05.127Z,0.00
2019-01-30T03:50:05.103Z,0.00
2019-01-30T03:51:05.090Z,0.00
2019-01-30T03:52:05.084Z,0.00
2019-01-30T03:53:05.074Z,0.00
2019-01-30T03:54:05.079Z,0.00
2019-01-30T03:55:05.182Z,0.00
2019-01-30T03:56:05.056Z,0.00
2019-01-30T03:57:05.030Z,0.00
2019-01-30T03:58:05.024Z,0.00
2019-01-30T03:59:05.049Z,0.00
2019-01-30T04:00:05.001Z,0.00
2019-01-30T04:01:04.989Z,0.00
2019-01-30T04:02:04.975Z,0.00
2019-01-30T04:03:04.966Z,0.00
2019-01-30T04:04:04.977Z,0.00
2019-01-30T04:05:04.947Z,0.00
2019-01-30T04:06:04.954Z,0.00
2019-01-30T04:07:04.941Z,0.00
2019-01-30T04:08:04.925Z,0.00
2019-01-30T04:09:04.920Z,0.00
2019-01-30T04:10:04.923Z,0.00
2019-01-30T04:11:04.875Z,0.00
2019-01-30T04:12:04.866Z,0.00
2019-01-30T04:13:04.852Z,0.00
2019-01-30T04:14:04.843Z,0.00
2019-01-30T04:15:04.869Z,0.00
2019-01-30T04:16:04.916Z,0.00
2019-01-30T04:17:04.810Z,0.00
2019-01-30T04:18:04.798Z,0.00
2019-01-30T04:19:04.816Z,0.00
2019-01-30T04:20:04.810Z,0.00
2019-01-30T04:21:04.779Z,0.00
2019-01-30T04:22:04.758Z,0.00
2019-01-30T04:23:04.749Z,0.00
2019-01-30T04:24:04.735Z,0.00
2019-01-30T04:25:04.734Z,0.00
2019-01-30T04:26:04.752Z,0.00
2019-01-30T04:27:04.720Z,0.00
2019-01-30T04:28:04.702Z,0.00
2019-01-30T04:29:04.688Z,0.00
2019-01-30T04:30:04.676Z,0.00
2019-01-30T04:31:04.658Z,0.00
2019-01-30T04:32:04.723Z,0.00
2019-01-30T04:33:04.644Z,0.00
2019-01-30T04:34:04.625Z,0.00
2019-01-30T04:35:04.614Z,0.00
2019-01-30T04:36:04.617Z,0.00
2019-01-30T04:37:04.606Z,0.00
2019-01-30T04:38:04.594Z,0.00
2019-01-30T04:39:04.574Z,0.00
2019-01-30T04:40:04.621Z,0.00
2019-01-30T04:41:04.550Z,0.00
2019-01-30T04:42:04.575Z,0.00
2019-01-30T04:43:04.550Z,0.00
2019-01-30T04:44:04.545Z,0.00
2019-01-30T04:45:04.531Z,0.00
2019-01-30T04:46:04.503Z,0.00
2019-01-30T04:47:04.511Z,0.00
2019-01-30T04:48:04.474Z,0.00
2019-01-30T04:49:04.484Z,0.00
2019-01-30T04:50:04.453Z,0.00
2019-01-30T04:51:04.455Z,0.00
2019-01-30T04:52:04.459Z,0.00
2019-01-30T04:53:04.440Z,0.00
2019-01-30T04:54:04.432Z,0.00
2019-01-30T04:55:04.467Z,0.00
2019-01-30T04:56:04.388Z,0.00
2019-01-30T04:57:04.392Z,0.00
2019-01-30T04:58:04.379Z,0.00
2019-01-30T04:59:04.371Z,0.00
2019-01-30T05:00:04.343Z,0.00
2019-01-30T05:01:04.384Z,0.00
2019-01-30T05:02:04.322Z,0.00
2019-01-30T05:03:04.331Z,0.00
2019-01-30T05:04:04.308Z,0.00
2019-01-30T05:05:04.286Z,0.00
2019-01-30T05:06:04.291Z,0.00
2019-01-30T05:07:04.295Z,0.00
2019-01-30T05:08:04.324Z,0.00
2019-01-30T05:09:04.252Z,0.00
2019-01-30T05:10:04.238Z,0.00
2019-01-30T05:11:04.266Z,0.00
2019-01-30T05:12:04.230Z,0.00
2019-01-30T05:13:04.265Z,0.00
2019-01-30T05:14:04.197Z,0.00
2019-01-30T05:15:04.196Z,0.00
2019-01-30T05:16:04.180Z,0.00
2019-01-30T05:17:04.162Z,0.00
2019-01-30T05:18:04.152Z,0.00
2019-01-30T05:19:04.158Z,0.00
2019-01-30T05:20:04.128Z,0.00
2019-01-30T05:21:04.185Z,0.00
2019-01-30T05:22:04.168Z,0.00
2019-01-30T05:23:04.095Z,0.00
2019-01-30T05:24:04.096Z,0.00
2019-01-30T05:25:04.087Z,0.00
2019-01-30T05:26:04.066Z,0.00
2019-01-30T05:27:04.057Z,0.00
2019-01-30T05:28:04.085Z,0.00
2019-01-30T05:29:04.029Z,0.00
2019-01-30T05:30:04.022Z,0.00
2019-01-30T05:31:04.080Z,0.00
2019-01-30T05:32:04.004Z,0.00
2019-01-30T05:33:03.990Z,0.00
2019-01-30T05:34:03.979Z,0.00
2019-01-30T05:35:03.986Z,0.00
2019-01-30T05:36:03.975Z,0.00
2019-01-30T05:37:03.950Z,0.00
2019-01-30T05:38:03.984Z,0.00
2019-01-30T05:39:03.920Z,0.00
2019-01-30T05:40:03.927Z,0.00
2019-01-30T05:41:03.929Z,8.00
2019-01-30T05:42:03.911Z,12.00
2019-01-30T05:43:03.877Z,12.00
2019-01-30T05:44:03.878Z,12.00
2019-01-30T05:45:03.875Z,12.00
2019-01-30T05:46:03.852Z,0.00
2019-01-30T05:47:03.839Z,0.00
2019-01-30T05:48:03.823Z,0.00
2019-01-30T05:49:03.862Z,0.00
2019-01-30T05:50:03.812Z,0.00
2019-01-30T05:51:03.799Z,0.00
2019-01-30T05:52:03.792Z,0.00
2019-01-30T05:53:03.781Z,0.00
2019-01-30T05:54:03.767Z,0.00
2019-01-30T05:55:03.752Z,0.00
2019-01-30T05:56:03.767Z,0.00
2019-01-30T05:57:03.752Z,0.00
2019-01-30T05:58:03.717Z,0.00
2019-01-30T05:59:03.703Z,8.00
2019-01-30T06:00:03.694Z,12.00
2019-01-30T06:01:03.729Z,12.00
2019-01-30T06:02:11.937Z,12.00
2019-01-30T06:03:04.664Z,12.00
2019-01-30T06:04:03.655Z,12.00
2019-01-30T06:05:03.664Z,12.00
2019-01-30T06:06:03.653Z,0.00
2019-01-30T06:07:03.652Z,0.00
2019-01-30T06:08:03.644Z,0.00
2019-01-30T06:09:03.637Z,0.00
2019-01-30T06:10:03.598Z,0.00
2019-01-30T06:11:03.576Z,0.00
2019-01-30T06:12:03.593Z,0.00
2019-01-30T06:13:03.556Z,0.00
2019-01-30T06:14:03.544Z,0.00
2019-01-30T06:15:03.533Z,0.00
2019-01-30T06:16:03.531Z,8.00
2019-01-30T06:17:03.514Z,12.00
2019-01-30T06:18:03.534Z,12.00
2019-01-30T06:19:03.496Z,12.00
2019-01-30T06:20:03.500Z,12.00
2019-01-30T06:21:03.478Z,0.00
2019-01-30T06:22:03.470Z,0.00
2019-01-30T06:23:03.459Z,0.00
2019-01-30T06:24:03.442Z,0.00
2019-01-30T06:25:03.450Z,4.00
2019-01-30T06:26:03.412Z,4.00
2019-01-30T06:27:03.408Z,0.00
2019-01-30T06:28:03.421Z,8.00
2019-01-30T06:29:03.379Z,12.00
2019-01-30T06:30:03.374Z,16.00
2019-01-30T06:31:03.365Z,16.00
2019-01-30T06:32:03.344Z,16.00
2019-01-30T06:33:03.355Z,16.00
2019-01-30T06:34:03.332Z,16.00
2019-01-30T06:35:03.365Z,16.00
2019-01-30T06:36:03.302Z,16.00
2019-01-30T06:37:03.294Z,20.00
2019-01-30T06:38:03.285Z,20.00
2019-01-30T06:39:03.286Z,20.00
2019-01-30T06:40:03.262Z,24.00
2019-01-30T06:41:03.247Z,28.00
2019-01-30T06:42:03.256Z,28.00
2019-01-30T06:43:03.229Z,28.00
2019-01-30T06:44:03.220Z,32.00
2019-01-30T06:45:03.209Z,36.00
2019-01-30T06:46:03.212Z,32.00
2019-01-30T06:47:03.180Z,36.00
2019-01-30T06:48:03.170Z,36.00
2019-01-30T06:49:03.180Z,28.00
2019-01-30T06:50:03.151Z,28.00
2019-01-30T06:51:03.146Z,28.00
2019-01-30T06:52:03.133Z,28.00
2019-01-30T06:53:03.118Z,32.00
2019-01-30T06:54:03.110Z,28.00
2019-01-30T06:55:03.102Z,32.00
2019-01-30T06:56:03.084Z,32.00
2019-01-30T06:57:03.072Z,32.00
2019-01-30T06:58:03.073Z,32.00
2019-01-30T06:59:03.054Z,32.00
2019-01-30T07:00:03.052Z,32.00
2019-01-30T07:01:03.033Z,36.00
2019-01-30T07:02:03.033Z,36.00
2019-01-30T07:03:03.013Z,44.00
2019-01-30T07:04:03.083Z,44.00
2019-01-30T07:05:03.005Z,52.00
2019-01-30T07:06:02.985Z,56.00
2019-01-30T07:07:03.001Z,60.00
2019-01-30T07:08:02.961Z,72.00
2019-01-30T07:09:02.998Z,84.00
2019-01-30T07:10:02.938Z,88.00
2019-01-30T07:11:10.318Z,96.00
2019-01-30T07:12:03.931Z,96.00
2019-01-30T07:13:02.921Z,104.00
2019-01-30T07:14:02.919Z,104.00
2019-01-30T07:15:02.884Z,104.00
2019-01-30T07:16:02.900Z,92.00
2019-01-30T07:17:02.860Z,96.00
2019-01-30T07:18:02.860Z,96.00
2019-01-30T07:19:02.898Z,96.00
2019-01-30T07:20:02.831Z,100.00
2019-01-30T07:21:02.818Z,104.00
2019-01-30T07:22:02.810Z,104.00
2019-01-30T07:23:02.874Z,104.00
2019-01-30T07:24:02.793Z,104.00
2019-01-30T07:25:02.797Z,104.00
2019-01-30T07:26:02.764Z,104.00
2019-01-30T07:27:02.750Z,112.00
2019-01-30T07:28:02.750Z,120.00
2019-01-30T07:29:02.728Z,124.00
2019-01-30T07:30:02.731Z,132.00
2019-01-30T07:31:02.708Z,144.00
2019-01-30T07:32:02.696Z,152.00
2019-01-30T07:33:02.683Z,164.00
2019-01-30T07:34:02.760Z,176.00
2019-01-30T07:35:02.684Z,188.00
2019-01-30T07:36:02.662Z,196.00
2019-01-30T07:37:02.664Z,204.00
2019-01-30T07:38:02.649Z,212.00
2019-01-30T07:39:02.622Z,220.00
2019-01-30T07:40:02.630Z,228.00
2019-01-30T07:41:02.595Z,224.00
2019-01-30T07:42:02.616Z,248.00
2019-01-30T07:43:02.581Z,256.00
2019-01-30T07:44:02.566Z,268.00
2019-01-30T07:45:02.630Z,276.00
2019-01-30T07:46:02.570Z,284.00
2019-01-30T07:47:02.549Z,280.00
2019-01-30T07:48:02.575Z,288.00
2019-01-30T07:49:02.518Z,292.00
2019-01-30T07:50:02.508Z,304.00
2019-01-30T07:51:02.513Z,312.00
2019-01-30T07:52:02.490Z,316.00
2019-01-30T07:53:02.478Z,328.00
2019-01-30T07:54:02.473Z,336.00
2019-01-30T07:55:02.476Z,336.00
2019-01-30T07:56:02.446Z,340.00
2019-01-30T07:57:03.217Z,336.00
2019-01-30T07:58:02.426Z,332.00
2019-01-30T07:59:02.411Z,320.00
2019-01-30T08:00:02.391Z,316.00
2019-01-30T08:01:02.492Z,312.00
2019-01-30T08:02:02.390Z,312.00
2019-01-30T08:03:02.361Z,308.00
2019-01-30T08:04:02.361Z,312.00
2019-01-30T08:05:02.395Z,316.00
2019-01-30T08:06:02.329Z,316.00
2019-01-30T08:07:03.154Z,324.00
2019-01-30T08:08:02.313Z,328.00
2019-01-30T08:09:02.307Z,336.00
2019-01-30T08:10:02.280Z,340.00
2019-01-30T08:11:02.334Z,348.00
2019-01-30T08:12:02.279Z,356.00
2019-01-30T08:13:02.291Z,364.00
2019-01-30T08:14:02.255Z,372.00
2019-01-30T08:15:02.253Z,380.00
2019-01-30T08:16:02.223Z,388.00
2019-01-30T08:17:02.240Z,396.00
2019-01-30T08:18:02.212Z,404.00
2019-01-30T08:19:02.179Z,412.00
2019-01-30T08:20:02.180Z,416.00
2019-01-30T08:21:02.157Z,424.00
2019-01-30T08:22:02.147Z,428.00
2019-01-30T08:23:02.532Z,436.00
2019-01-30T08:24:02.141Z,436.00
2019-01-30T08:25:02.130Z,444.00
2019-01-30T08:26:02.422Z,444.00
2019-01-30T08:27:02.121Z,448.00
2019-01-30T08:28:02.235Z,452.00
2019-01-30T08:29:02.263Z,456.00
2019-01-30T08:30:02.595Z,468.00
2019-01-30T08:31:02.474Z,480.00
2019-01-30T08:32:02.581Z,492.00
2019-01-30T08:33:05.392Z,504.00
2019-01-30T08:34:02.035Z,512.00
2019-01-30T08:35:02.006Z,528.00
2019-01-30T08:36:01.998Z,540.00
2019-01-30T08:37:01.986Z,552.00
2019-01-30T08:38:01.982Z,564.00
2019-01-30T08:39:01.969Z,576.00
2019-01-30T08:40:01.962Z,580.00
2019-01-30T08:41:02.015Z,584.00
2019-01-30T08:42:01.955Z,588.00
2019-01-30T08:43:01.922Z,596.00
2019-01-30T08:44:01.911Z,596.00
2019-01-30T08:45:01.907Z,600.00
2019-01-30T08:46:01.892Z,600.00
2019-01-30T08:47:01.910Z,604.00
2019-01-30T08:48:01.888Z,616.00
2019-01-30T08:49:01.874Z,628.00
2019-01-30T08:50:01.845Z,640.00
2019-01-30T08:51:01.948Z,652.00
2019-01-30T08:52:01.859Z,664.00
2019-01-30T08:53:01.818Z,676.00
2019-01-30T08:54:01.859Z,684.00
2019-01-30T08:55:01.803Z,684.00
2019-01-30T08:56:01.783Z,684.00
2019-01-30T08:57:01.830Z,684.00
2019-01-30T08:58:01.802Z,680.00
2019-01-30T08:59:01.760Z,684.00
2019-01-30T09:00:01.745Z,684.00
2019-01-30T09:01:01.721Z,684.00
2019-01-30T09:02:01.730Z,684.00
2019-01-30T09:03:01.711Z,680.00
2019-01-30T09:04:01.699Z,676.00
2019-01-30T09:05:01.679Z,672.00
2019-01-30T09:06:01.668Z,656.00
2019-01-30T09:07:01.734Z,648.00
2019-01-30T09:08:01.661Z,644.00
2019-01-30T09:09:01.642Z,640.00
2019-01-30T09:10:01.624Z,636.00
2019-01-30T09:11:01.615Z,632.00
2019-01-30T09:12:01.605Z,636.00
2019-01-30T09:13:01.634Z,632.00
2019-01-30T09:14:01.581Z,632.00
2019-01-30T09:15:01.574Z,636.00
2019-01-30T09:16:01.558Z,640.00
2019-01-30T09:17:01.552Z,644.00
2019-01-30T09:18:01.555Z,648.00
2019-01-30T09:19:01.528Z,656.00
2019-01-30T09:20:01.517Z,660.00
2019-01-30T09:21:01.516Z,668.00
2019-01-30T09:22:01.492Z,668.00
2019-01-30T09:23:01.571Z,676.00
2019-01-30T09:24:01.472Z,672.00
2019-01-30T09:25:01.467Z,676.00
2019-01-30T09:26:02.205Z,676.00
2019-01-30T09:27:01.451Z,680.00
2019-01-30T09:28:01.457Z,684.00
2019-01-30T09:29:01.425Z,688.00
2019-01-30T09:30:01.413Z,688.00
2019-01-30T09:31:01.399Z,688.00
2019-01-30T09:32:01.394Z,688.00
2019-01-30T09:33:01.373Z,692.00
2019-01-30T09:34:01.421Z,680.00
2019-01-30T09:35:01.415Z,680.00
2019-01-30T09:36:01.351Z,700.00
2019-01-30T09:37:01.333Z,704.00
2019-01-30T09:38:01.325Z,708.00
2019-01-30T09:39:01.369Z,708.00
2019-01-30T09:40:01.399Z,712.00
2019-01-30T09:41:01.295Z,724.00
2019-01-30T09:42:01.283Z,720.00
2019-01-30T09:43:01.273Z,724.00
2019-01-30T09:44:01.284Z,728.00
2019-01-30T09:45:01.262Z,736.00
2019-01-30T09:46:01.260Z,736.00
2019-01-30T09:47:01.246Z,736.00
2019-01-30T09:48:01.243Z,740.00
2019-01-30T09:49:01.243Z,744.00
2019-01-30T09:50:01.220Z,752.00
2019-01-30T09:51:01.190Z,764.00
2019-01-30T09:52:01.183Z,768.00
2019-01-30T09:53:01.171Z,784.00
2019-01-30T09:54:01.174Z,800.00
2019-01-30T09:55:01.193Z,820.00
2019-01-30T09:56:01.142Z,836.00
2019-01-30T09:57:01.118Z,848.00
2019-01-30T09:58:01.103Z,860.00
2019-01-30T09:59:01.100Z,872.00
2019-01-30T10:00:01.084Z,892.00
2019-01-30T10:01:01.072Z,908.00
2019-01-30T10:02:01.080Z,928.00
2019-01-30T10:03:01.094Z,944.00
2019-01-30T10:04:01.068Z,960.00
2019-01-30T10:05:01.028Z,972.00
2019-01-30T10:06:01.017Z,976.00
2019-01-30T10:07:01.006Z,984.00
2019-01-30T10:08:01.007Z,992.00
2019-01-30T10:09:01.051Z,988.00
2019-01-30T10:10:00.998Z,992.00
2019-01-30T10:11:00.960Z,992.00
2019-01-30T10:12:00.949Z,996.00
2019-01-30T10:13:00.940Z,1004.00
2019-01-30T10:14:00.943Z,1012.00
2019-01-30T10:15:00.932Z,1012.00
2019-01-30T10:16:00.911Z,1008.00
2019-01-30T10:17:00.996Z,996.00
2019-01-30T10:18:00.888Z,984.00
2019-01-30T10:19:00.904Z,972.00
2019-01-30T10:20:00.876Z,960.00
2019-01-30T10:21:00.861Z,956.00
2019-01-30T10:22:00.845Z,940.00
2019-01-30T10:23:00.856Z,904.00
2019-01-30T10:24:00.853Z,892.00
2019-01-30T10:25:00.811Z,856.00
2019-01-30T10:26:00.816Z,832.00
2019-01-30T10:27:00.786Z,816.00
2019-01-30T10:28:00.806Z,856.00
2019-01-30T10:29:00.780Z,884.00
2019-01-30T10:30:00.769Z,876.00
2019-01-30T10:31:00.775Z,852.00
2019-01-30T10:32:00.771Z,860.00
2019-01-30T10:33:00.775Z,856.00
2019-01-30T10:34:00.741Z,864.00
2019-01-30T10:35:00.717Z,892.00
2019-01-30T10:36:00.705Z,916.00
2019-01-30T10:37:00.720Z,960.00
2019-01-30T10:38:00.703Z,1004.00
2019-01-30T10:39:00.662Z,1040.00
2019-01-30T10:40:00.647Z,1060.00
2019-01-30T10:41:00.673Z,1064.00
2019-01-30T10:42:00.654Z,1056.00
2019-01-30T10:43:00.685Z,1028.00
2019-01-30T10:44:00.673Z,988.00
2019-01-30T10:45:00.635Z,960.00
2019-01-30T10:46:00.602Z,940.00
2019-01-30T10:47:00.565Z,912.00
2019-01-30T10:48:00.568Z,904.00
2019-01-30T10:49:00.554Z,900.00
2019-01-30T10:50:00.552Z,892.00
2019-01-30T10:51:00.556Z,880.00
2019-01-30T10:52:00.684Z,872.00
2019-01-30T10:53:00.536Z,860.00
2019-01-30T10:54:00.492Z,864.00
2019-01-30T10:55:00.523Z,876.00
2019-01-30T10:56:00.475Z,884.00
2019-01-30T10:57:00.455Z,916.00
2019-01-30T10:58:00.466Z,928.00
2019-01-30T10:59:00.457Z,944.00
2019-01-30T11:00:00.476Z,948.00
2019-01-30T11:01:00.429Z,944.00
2019-01-30T11:02:00.403Z,932.00
2019-01-30T11:03:00.419Z,908.00
2019-01-30T11:04:00.381Z,888.00
2019-01-30T11:05:00.373Z,876.00
2019-01-30T11:06:00.358Z,860.00
2019-01-30T11:07:00.352Z,848.00
2019-01-30T11:08:00.354Z,844.00
2019-01-30T11:09:00.360Z,844.00
2019-01-30T11:10:00.348Z,884.00
2019-01-30T11:11:07.463Z,892.00
2019-01-30T11:12:01.291Z,948.00
2019-01-30T11:13:00.286Z,920.00
2019-01-30T11:14:00.287Z,904.00
2019-01-30T11:15:02.833Z,900.00
2019-01-30T11:16:01.277Z,916.00
2019-01-30T11:17:00.256Z,972.00
2019-01-30T11:18:00.263Z,1032.00
2019-01-30T11:19:00.219Z,1056.00
2019-01-30T11:20:00.215Z,1048.00
2019-01-30T11:21:00.200Z,1048.00
2019-01-30T11:22:00.184Z,1032.00
2019-01-30T11:23:00.186Z,1008.00
2019-01-30T11:24:00.183Z,996.00
2019-01-30T11:25:00.401Z,996.00
2019-01-30T11:26:00.156Z,992.00
2019-01-30T11:27:00.129Z,984.00
2019-01-30T11:28:00.125Z,976.00
2019-01-30T11:29:00.106Z,976.00
2019-01-30T11:30:00.295Z,984.00
2019-01-30T11:31:00.098Z,992.00
2019-01-30T11:32:00.072Z,1008.00
2019-01-30T11:33:00.067Z,1048.00
2019-01-30T11:34:07.355Z,1048.00
2019-01-30T11:35:01.045Z,1068.00
2019-01-30T11:36:00.033Z,1056.00
2019-01-30T11:37:00.281Z,1020.00
2019-01-30T11:38:00.018Z,976.00
2019-01-30T11:39:00.045Z,936.00
2019-01-30T11:39:59.992Z,904.00
2019-01-30T11:40:59.986Z,900.00
2019-01-30T11:41:59.993Z,900.00
2019-01-30T11:42:59.957Z,904.00
2019-01-30T11:43:59.983Z,920.00
2019-01-30T11:44:59.931Z,944.00
2019-01-30T11:45:59.917Z,972.00
2019-01-30T11:46:59.918Z,996.00
2019-01-30T11:47:59.913Z,1016.00
2019-01-30T11:48:59.896Z,1028.00
2019-01-30T11:49:59.880Z,1028.00
2019-01-30T11:50:59.861Z,1008.00
2019-01-30T11:51:59.871Z,984.00
2019-01-30T11:52:59.866Z,968.00
2019-01-30T11:53:59.848Z,960.00
2019-01-30T11:54:59.826Z,964.00
2019-01-30T11:55:59.818Z,972.00
2019-01-30T11:56:59.867Z,980.00
2019-01-30T11:57:59.807Z,976.00
2019-01-30T11:58:59.852Z,984.00
2019-01-30T11:59:59.820Z,984.00
2019-01-30T12:00:59.758Z,984.00
2019-01-30T12:01:59.747Z,996.00
2019-01-30T12:02:59.745Z,1020.00
2019-01-30T12:03:59.728Z,1044.00
2019-01-30T12:04:59.714Z,1072.00
2019-01-30T12:05:59.737Z,1096.00
2019-01-30T12:06:59.705Z,1128.00
2019-01-30T12:07:59.726Z,1164.00
2019-01-30T12:08:59.726Z,1200.00
2019-01-30T12:09:59.660Z,1232.00
2019-01-30T12:10:59.705Z,1252.00
2019-01-30T12:11:59.686Z,1256.00
2019-01-30T12:12:59.636Z,1256.00
2019-01-30T12:13:59.615Z,1244.00
2019-01-30T12:14:59.623Z,1228.00
2019-01-30T12:15:59.588Z,1204.00
2019-01-30T12:16:59.585Z,1176.00
2019-01-30T12:17:59.576Z,1168.00
2019-01-30T12:18:59.559Z,1180.00
2019-01-30T12:19:59.564Z,1184.00
2019-01-30T12:20:59.539Z,1168.00
2019-01-30T12:21:59.542Z,1184.00
2019-01-30T12:22:59.511Z,1228.00
2019-01-30T12:23:59.515Z,1228.00
2019-01-30T12:24:59.546Z,1236.00
2019-01-30T12:25:59.492Z,1280.00
2019-01-30T12:26:59.492Z,1268.00
2019-01-30T12:27:59.488Z,1272.00
2019-01-30T12:28:59.463Z,1252.00
2019-01-30T12:29:59.446Z,1300.00
2019-01-30T12:30:59.424Z,1316.00
2019-01-30T12:31:59.494Z,1344.00
2019-01-30T12:32:59.490Z,1268.00
2019-01-30T12:33:59.411Z,1296.00
2019-01-30T12:34:59.435Z,1340.00
2019-01-30T12:35:59.450Z,1436.00
2019-01-30T12:36:59.482Z,1576.00
2019-01-30T12:37:59.439Z,1552.00
2019-01-30T12:38:59.340Z,1636.00
2019-01-30T12:39:59.332Z,1580.00
2019-01-30T12:40:59.328Z,1456.00
2019-01-30T12:41:59.308Z,1404.00
2019-01-30T12:42:59.290Z,1472.00
2019-01-30T12:43:59.335Z,1416.00
2019-01-30T12:44:59.287Z,1520.00
2019-01-30T12:45:59.261Z,1388.00
2019-01-30T12:46:59.247Z,1188.00
2019-01-30T12:47:59.282Z,1068.00
2019-01-30T12:48:59.224Z,1036.00
2019-01-30T12:49:59.212Z,1028.00
2019-01-30T12:50:59.258Z,1036.00